Time;durP1;ratioP1;P1;durP2;ratioP2;P2;SDS_P1;SDS_P2;PMS_P1;PMS_P2;Temp;Humidity;BMP_temperature;BMP_pressure;BME280_temperature;BME280_humidity;BME280_pressure;Samples;Min_cycle;Max_cycle;Signal;HPM_P1;HPM_P2
2023/05/09 00:00:11;;;;;;;1.33;1.20;;;16.10;99.90;;;;;;5038756;28;20702;-65
2023/05/09 00:02:40;;;;;;;2.53;2.38;;;16.10;99.90;;;;;;5047928;28;20290;-65
2023/05/09 00:05:08;;;;;;;1.75;1.00;;;16.10;99.90;;;;;;5050176;28;20366;-64
2023/05/09 00:07:36;;;;;;;1.13;1.02;;;16.00;99.90;;;;;;5044515;28;20740;-64
2023/05/09 00:10:05;;;;;;;2.13;2.03;;;15.90;99.90;;;;;;5045519;28;20224;-65
2023/05/09 00:12:33;;;;;;;2.00;1.83;;;15.90;99.90;;;;;;5039945;28;20750;-64
2023/05/09 00:15:03;;;;;;;1.50;1.00;;;15.90;99.90;;;;;;5038407;28;20239;-64
2023/05/09 00:17:31;;;;;;;1.63;1.52;;;15.90;99.90;;;;;;5046716;28;20219;-66
2023/05/09 00:20:00;;;;;;;2.00;1.65;;;15.90;99.90;;;;;;5034605;28;20690;-65
2023/05/09 00:22:28;;;;;;;1.55;1.45;;;16.00;99.90;;;;;;5041444;28;20203;-65
2023/05/09 00:24:56;;;;;;;1.80;1.70;;;15.90;99.90;;;;;;5038784;28;20282;-64
2023/05/09 00:27:24;;;;;;;1.60;1.50;;;15.90;99.90;;;;;;5037193;28;20262;-64
2023/05/09 00:29:52;;;;;;;2.42;1.40;;;15.90;99.90;;;;;;5049810;28;20318;-64
2023/05/09 00:32:21;;;;;;;2.05;1.63;;;15.90;99.90;;;;;;5050186;28;20227;-64
2023/05/09 00:34:49;;;;;;;1.45;1.13;;;15.90;99.90;;;;;;5049656;28;20254;-66
2023/05/09 00:37:18;;;;;;;1.00;0.80;;;16.00;99.90;;;;;;5044032;28;20204;-65
2023/05/09 00:39:45;;;;;;;0.88;0.88;;;16.00;99.90;;;;;;5040392;28;20768;-65
2023/05/09 00:42:13;;;;;;;1.15;1.05;;;16.10;99.90;;;;;;5035508;28;20282;-65
2023/05/09 00:44:41;;;;;;;1.80;1.70;;;16.10;99.90;;;;;;5035687;28;20209;-66
2023/05/09 00:47:09;;;;;;;1.55;1.45;;;16.20;99.90;;;;;;5043549;28;20752;-65
2023/05/09 00:49:38;;;;;;;2.03;1.83;;;16.10;99.90;;;;;;5049651;28;20698;-65
2023/05/09 00:52:06;;;;;;;1.92;1.60;;;16.00;99.90;;;;;;5049894;28;20718;-65
2023/05/09 00:54:34;;;;;;;1.90;1.48;;;16.00;99.90;;;;;;5052757;28;20314;-65
2023/05/09 00:57:02;;;;;;;1.25;1.15;;;15.90;99.90;;;;;;5043575;28;20303;-66
2023/05/09 00:59:30;;;;;;;3.70;1.80;;;15.90;99.90;;;;;;5027292;28;20685;-65
2023/05/09 01:01:58;;;;;;;1.73;1.55;;;15.90;99.90;;;;;;5017719;28;20653;-66
2023/05/09 01:04:26;;;;;;;1.50;1.40;;;15.80;99.90;;;;;;5022146;28;20224;-65
2023/05/09 01:07:04;;;;;;;2.17;1.90;;;15.80;99.90;;;;;;5023941;28;20224;-66
2023/05/09 01:09:38;;;;;;;1.15;1.05;;;15.80;99.90;;;;;;5024640;28;20807;-65
2023/05/09 01:12:13;;;;;;;2.83;2.55;;;15.70;99.90;;;;;;5039996;28;20227;-65
2023/05/09 01:14:50;;;;;;;2.05;1.95;;;15.60;99.90;;;;;;5026708;28;20728;-65
2023/05/09 01:17:26;;;;;;;1.13;1.05;;;15.70;99.90;;;;;;5041316;28;20294;-64
2023/05/09 01:20:00;;;;;;;1.58;1.30;;;15.80;99.90;;;;;;5014149;28;20228;-64
2023/05/09 01:22:33;;;;;;;2.75;1.00;;;15.90;99.90;;;;;;5021971;28;20584;-64
2023/05/09 01:25:28;;;;;;;1.70;1.55;;;15.90;99.90;;;;;;5024191;28;20279;-64
2023/05/09 01:28:03;;;;;;;2.00;1.85;;;15.90;99.90;;;;;;5025328;28;20211;-64
2023/05/09 01:30:35;;;;;;;1.13;0.90;;;15.90;99.90;;;;;;5022489;28;20307;-65
2023/05/09 01:33:07;;;;;;;1.75;1.65;;;15.90;99.90;;;;;;5025276;28;20202;-65
2023/05/09 01:35:38;;;;;;;1.42;1.00;;;15.90;99.90;;;;;;5015612;28;20210;-63
2023/05/09 01:38:19;;;;;;;1.73;1.60;;;15.90;99.90;;;;;;5020381;28;20204;-65
2023/05/09 01:40:51;;;;;;;1.38;1.27;;;16.00;99.90;;;;;;5018541;28;20967;-64
2023/05/09 01:43:21;;;;;;;1.35;1.25;;;16.00;99.90;;;;;;5023833;28;20201;-65
2023/05/09 01:45:52;;;;;;;1.02;0.73;;;16.00;99.90;;;;;;5018031;28;20201;-64
2023/05/09 01:48:25;;;;;;;1.27;1.17;;;15.90;99.90;;;;;;5024274;28;20574;-64
2023/05/09 01:50:54;;;;;;;3.92;2.33;;;16.00;99.90;;;;;;5021749;28;20278;-64
2023/05/09 01:53:24;;;;;;;1.08;0.98;;;15.90;99.90;;;;;;5015211;28;20637;-65
2023/05/09 01:55:54;;;;;;;2.30;2.10;;;16.00;99.90;;;;;;5023551;28;20205;-64
2023/05/09 01:58:23;;;;;;;1.50;1.40;;;16.00;99.90;;;;;;5021501;28;20209;-64
2023/05/09 02:00:53;;;;;;;1.30;1.20;;;16.00;99.90;;;;;;5029256;28;20284;-64
2023/05/09 02:03:22;;;;;;;1.48;1.00;;;16.10;99.90;;;;;;5017672;28;20205;-64
2023/05/09 02:05:50;;;;;;;1.77;1.67;;;16.10;99.90;;;;;;5026441;28;20215;-65
2023/05/09 02:08:20;;;;;;;2.42;2.30;;;16.10;99.90;;;;;;5020174;28;20287;-64
2023/05/09 02:10:49;;;;;;;1.70;1.60;;;16.00;99.90;;;;;;5014762;28;20220;-64
2023/05/09 02:13:17;;;;;;;1.23;1.13;;;15.90;99.90;;;;;;5018467;28;20287;-63
2023/05/09 02:15:45;;;;;;;1.60;1.50;;;15.90;99.90;;;;;;5020275;28;20311;-63
2023/05/09 02:18:15;;;;;;;1.33;1.20;;;15.90;99.90;;;;;;5017422;28;20236;-64
2023/05/09 02:20:43;;;;;;;1.98;1.88;;;15.70;99.90;;;;;;5021870;28;20282;-64
2023/05/09 02:23:11;;;;;;;1.45;1.35;;;15.70;99.90;;;;;;5020926;28;20207;-64
2023/05/09 02:25:40;;;;;;;1.23;1.13;;;15.70;99.90;;;;;;5023691;28;20747;-64
2023/05/09 02:28:09;;;;;;;1.48;1.38;;;15.70;99.90;;;;;;5024083;28;20196;-64
2023/05/09 02:30:41;;;;;;;1.45;1.35;;;15.70;99.90;;;;;;5019336;28;20225;-64
2023/05/09 02:33:11;;;;;;;1.42;1.33;;;15.70;99.90;;;;;;5036041;28;20625;-64
2023/05/09 02:35:42;;;;;;;1.08;0.98;;;15.70;99.90;;;;;;5051359;28;20239;-64
2023/05/09 02:38:11;;;;;;;1.92;1.15;;;15.70;99.90;;;;;;5029668;28;20295;-64
2023/05/09 02:40:42;;;;;;;1.20;1.15;;;15.70;99.90;;;;;;5013132;28;20263;-64
2023/05/09 02:43:10;;;;;;;1.83;1.45;;;15.70;99.90;;;;;;5018578;28;20227;-63
2023/05/09 02:45:38;;;;;;;1.40;1.30;;;15.70;99.90;;;;;;5017635;28;20296;-64
2023/05/09 02:48:06;;;;;;;1.67;1.55;;;15.70;99.90;;;;;;5022218;28;20663;-64
2023/05/09 02:50:37;;;;;;;3.45;1.92;;;15.70;99.90;;;;;;5027086;28;20691;-64
2023/05/09 02:53:06;;;;;;;1.95;1.80;;;15.70;99.90;;;;;;5017277;28;20256;-65
2023/05/09 02:55:34;;;;;;;1.38;1.25;;;15.70;99.90;;;;;;5015711;28;20295;-64
2023/05/09 02:58:02;;;;;;;1.42;0.95;;;15.70;99.90;;;;;;5019575;28;20228;-64
2023/05/09 03:00:42;;;;;;;2.30;1.77;;;15.70;99.90;;;;;;5018110;28;20221;-64
2023/05/09 03:03:10;;;;;;;2.13;1.88;;;15.70;99.90;;;;;;5016719;28;20839;-64
2023/05/09 03:05:38;;;;;;;1.73;1.63;;;15.70;99.90;;;;;;5012645;28;20213;-65
2023/05/09 03:08:07;;;;;;;1.92;1.45;;;15.80;99.90;;;;;;5031301;28;20208;-64
2023/05/09 03:10:35;;;;;;;1.85;1.75;;;15.70;99.90;;;;;;5013885;28;20256;-64
2023/05/09 03:13:03;;;;;;;1.85;1.75;;;15.80;99.90;;;;;;5014005;28;20233;-64
2023/05/09 03:15:31;;;;;;;2.45;2.03;;;15.80;99.90;;;;;;5019658;28;20727;-64
2023/05/09 03:17:59;;;;;;;1.17;0.88;;;15.90;99.90;;;;;;5029217;28;20650;-64
2023/05/09 03:20:27;;;;;;;1.30;1.20;;;15.90;99.90;;;;;;5021107;28;20232;-65
2023/05/09 03:22:55;;;;;;;1.08;1.00;;;15.90;99.90;;;;;;5018841;28;20295;-64
2023/05/09 03:25:25;;;;;;;2.15;1.55;;;15.80;99.90;;;;;;5017509;28;20252;-65
2023/05/09 03:27:53;;;;;;;1.70;1.48;;;15.80;99.90;;;;;;5018900;28;20223;-64
2023/05/09 03:30:21;;;;;;;1.75;1.58;;;15.70;99.90;;;;;;5017570;28;20245;-65
2023/05/09 03:32:48;;;;;;;1.63;1.52;;;15.70;99.90;;;;;;5016296;28;20608;-65
2023/05/09 03:35:17;;;;;;;1.52;1.27;;;15.70;99.90;;;;;;5026803;28;20626;-66
2023/05/09 03:37:44;;;;;;;1.70;1.45;;;15.70;99.90;;;;;;5020143;28;20217;-65
2023/05/09 03:40:12;;;;;;;1.70;1.60;;;15.60;99.90;;;;;;5017381;28;20293;-65
2023/05/09 03:42:42;;;;;;;1.48;1.38;;;15.60;99.90;;;;;;5020466;28;20236;-64
2023/05/09 03:45:11;;;;;;;1.80;1.23;;;15.50;99.90;;;;;;5018515;28;20284;-65
2023/05/09 03:47:39;;;;;;;1.00;0.90;;;15.60;99.90;;;;;;5015276;28;20291;-64
2023/05/09 03:50:08;;;;;;;1.67;1.58;;;15.50;99.90;;;;;;5016625;28;20598;-65
2023/05/09 03:52:36;;;;;;;2.13;2.03;;;15.60;99.90;;;;;;5031551;28;20289;-66
2023/05/09 03:55:04;;;;;;;1.40;1.27;;;15.60;99.90;;;;;;5038578;28;20684;-65
2023/05/09 03:57:34;;;;;;;1.50;1.35;;;15.60;99.90;;;;;;5037071;28;20204;-65
2023/05/09 04:00:05;;;;;;;1.60;1.50;;;15.50;99.90;;;;;;5031606;28;21030;-65
2023/05/09 04:02:33;;;;;;;1.58;1.20;;;15.50;99.90;;;;;;5019089;28;20209;-65
2023/05/09 04:05:02;;;;;;;1.40;1.30;;;15.60;99.90;;;;;;5023934;28;20209;-65
2023/05/09 04:07:29;;;;;;;2.03;1.67;;;15.60;99.90;;;;;;5023963;28;20200;-65
2023/05/09 04:09:57;;;;;;;1.50;1.33;;;15.60;99.90;;;;;;5026221;28;20256;-65
2023/05/09 04:12:25;;;;;;;2.28;2.03;;;15.60;99.90;;;;;;5024347;28;20218;-65
2023/05/09 04:14:53;;;;;;;1.10;1.00;;;15.60;99.90;;;;;;5020957;28;20735;-65
2023/05/09 04:17:23;;;;;;;1.70;1.15;;;15.50;99.90;;;;;;5020007;28;20239;-65
2023/05/09 04:19:50;;;;;;;1.90;1.52;;;15.60;99.90;;;;;;5024847;28;20229;-65
2023/05/09 04:22:18;;;;;;;2.47;1.75;;;15.50;99.90;;;;;;5016701;28;20629;-65
2023/05/09 04:24:46;;;;;;;1.77;1.67;;;15.70;99.90;;;;;;5022669;28;20296;-65
2023/05/09 04:27:14;;;;;;;1.50;1.40;;;15.80;99.90;;;;;;5019336;28;20284;-65
2023/05/09 04:29:42;;;;;;;2.63;2.40;;;15.80;99.90;;;;;;5028604;28;20275;-65
2023/05/09 04:32:10;;;;;;;1.83;1.73;;;15.80;99.90;;;;;;5027534;28;20300;-65
2023/05/09 04:34:40;;;;;;;1.88;1.67;;;15.80;99.90;;;;;;5043816;28;20212;-65
2023/05/09 04:37:07;;;;;;;2.05;1.90;;;15.80;99.90;;;;;;5037297;28;20279;-64
2023/05/09 04:39:35;;;;;;;1.55;1.27;;;15.90;99.90;;;;;;5022688;28;20323;-65
2023/05/09 04:42:04;;;;;;;2.90;2.70;;;15.70;99.90;;;;;;5027401;28;20255;-65
2023/05/09 04:44:32;;;;;;;1.75;1.65;;;15.60;99.90;;;;;;5019690;28;20284;-64
2023/05/09 04:46:59;;;;;;;1.85;1.50;;;15.50;99.90;;;;;;5024900;28;20300;-64
2023/05/09 04:49:27;;;;;;;3.40;3.00;;;15.60;99.90;;;;;;5022969;28;20253;-65
2023/05/09 04:51:57;;;;;;;2.17;1.23;;;15.70;99.90;;;;;;5015646;28;20235;-64
2023/05/09 04:54:24;;;;;;;0.75;0.75;;;15.70;99.90;;;;;;5026599;28;20224;-65
2023/05/09 04:56:52;;;;;;;1.70;1.50;;;15.70;99.90;;;;;;5029446;28;20597;-64
2023/05/09 04:59:33;;;;;;;1.95;1.80;;;15.60;99.90;;;;;;5043552;28;20228;-64
2023/05/09 05:02:01;;;;;;;1.85;1.42;;;15.70;99.90;;;;;;5027025;28;20714;-64
2023/05/09 05:04:30;;;;;;;2.67;2.20;;;15.70;99.90;;;;;;5047357;28;20199;-64
2023/05/09 05:06:59;;;;;;;1.83;1.42;;;15.80;99.90;;;;;;5053058;28;20215;-64
2023/05/09 05:09:27;;;;;;;3.22;2.92;;;15.80;99.90;;;;;;5033132;28;20256;-65
2023/05/09 05:11:55;;;;;;;3.17;2.03;;;15.80;99.90;;;;;;5035529;28;20649;-64
2023/05/09 05:14:29;;;;;;;2.28;2.10;;;15.80;99.90;;;;;;5036977;28;20200;-65
2023/05/09 05:16:57;;;;;;;3.33;1.85;;;15.80;99.90;;;;;;5035430;28;20207;-64
2023/05/09 05:19:25;;;;;;;1.85;1.75;;;15.90;99.90;;;;;;5036047;28;20247;-66
2023/05/09 05:21:52;;;;;;;1.35;1.25;;;15.90;99.90;;;;;;5039810;28;20205;-64
2023/05/09 05:24:22;;;;;;;1.30;1.20;;;16.00;99.90;;;;;;5035414;28;20235;-64
2023/05/09 05:26:49;;;;;;;1.63;1.52;;;16.00;99.90;;;;;;5033422;28;20231;-65
2023/05/09 05:29:17;;;;;;;2.22;2.03;;;15.90;99.90;;;;;;5034096;28;20654;-65
2023/05/09 05:31:45;;;;;;;2.40;1.92;;;16.00;99.90;;;;;;5034601;28;20225;-64
2023/05/09 05:34:15;;;;;;;1.50;1.40;;;16.00;99.90;;;;;;5035616;28;20204;-64
2023/05/09 05:36:43;;;;;;;1.63;1.52;;;16.00;99.90;;;;;;5038741;28;20226;-64
2023/05/09 05:39:11;;;;;;;1.95;1.63;;;16.10;99.90;;;;;;5031085;28;20260;-64
2023/05/09 05:41:40;;;;;;;2.60;2.38;;;16.10;99.90;;;;;;5032592;28;20215;-64
2023/05/09 05:44:08;;;;;;;2.78;2.47;;;16.20;99.90;;;;;;5034935;28;20633;-64
2023/05/09 05:46:36;;;;;;;0.90;0.90;;;16.20;99.90;;;;;;5032286;28;20316;-64
2023/05/09 05:49:04;;;;;;;1.38;1.27;;;16.20;99.90;;;;;;5038608;28;20278;-65
2023/05/09 05:51:32;;;;;;;1.00;1.00;;;16.20;99.90;;;;;;5038278;28;20214;-65
2023/05/09 05:53:59;;;;;;;1.25;1.15;;;16.30;99.90;;;;;;5035535;28;20227;-64
2023/05/09 05:56:27;;;;;;;2.10;2.00;;;16.40;99.90;;;;;;5032942;28;20287;-64
2023/05/09 05:58:56;;;;;;;2.92;2.72;;;16.60;99.90;;;;;;5033473;28;20310;-65
2023/05/09 06:01:25;;;;;;;3.33;1.95;;;16.60;99.90;;;;;;5030901;28;20733;-65
2023/05/09 06:03:54;;;;;;;2.05;1.85;;;16.60;99.90;;;;;;5030095;28;20209;-65
2023/05/09 06:06:23;;;;;;;2.83;2.55;;;16.70;99.90;;;;;;5037532;28;20204;-64
2023/05/09 06:08:50;;;;;;;1.38;1.27;;;16.80;99.90;;;;;;5031649;28;20278;-65
2023/05/09 06:11:19;;;;;;;2.90;2.72;;;16.80;99.90;;;;;;5031660;28;20299;-64
2023/05/09 06:13:46;;;;;;;2.22;2.05;;;16.90;99.90;;;;;;5025655;28;20306;-64
2023/05/09 06:16:16;;;;;;;2.17;2.00;;;17.00;99.90;;;;;;5018275;28;20720;-64
2023/05/09 06:18:47;;;;;;;1.48;1.27;;;17.00;99.90;;;;;;5018597;28;20329;-64
2023/05/09 06:21:15;;;;;;;2.17;1.90;;;17.00;99.90;;;;;;5016621;28;20687;-70
2023/05/09 06:23:43;;;;;;;2.08;1.90;;;17.00;99.90;;;;;;5020479;28;20205;-64
2023/05/09 06:26:31;;;;;;;3.15;2.85;;;17.10;99.90;;;;;;5025333;28;20204;-64
2023/05/09 06:28:59;;;;;;;1.88;1.67;;;17.20;99.90;;;;;;5049085;28;20255;-64
2023/05/09 06:31:28;;;;;;;2.15;2.05;;;17.20;99.90;;;;;;5041024;28;20663;-64
2023/05/09 06:33:56;;;;;;;3.03;2.50;;;17.20;99.90;;;;;;5051426;28;20629;-64
2023/05/09 06:36:25;;;;;;;2.78;2.30;;;17.20;99.90;;;;;;5051805;28;20227;-64
2023/05/09 06:38:52;;;;;;;3.05;2.35;;;17.40;99.90;;;;;;5035515;28;20742;-64
2023/05/09 06:41:22;;;;;;;1.50;1.40;;;17.30;99.90;;;;;;5129562;22;20227;-71
2023/05/09 06:43:50;;;;;;;1.23;1.13;;;17.50;99.90;;;;;;5055293;28;20199;-71
2023/05/09 06:46:18;;;;;;;1.60;1.50;;;17.50;99.90;;;;;;5056177;28;20286;-71
2023/05/09 06:48:47;;;;;;;2.13;2.00;;;17.70;99.90;;;;;;5051585;28;20214;-71
2023/05/09 06:51:15;;;;;;;2.38;2.17;;;17.70;99.90;;;;;;5037397;28;20308;-71
2023/05/09 06:53:43;;;;;;;2.13;1.75;;;17.70;99.90;;;;;;5036365;28;20640;-71
2023/05/09 06:56:11;;;;;;;1.35;1.25;;;17.70;99.90;;;;;;5039754;28;20204;-71
2023/05/09 06:58:39;;;;;;;1.63;1.52;;;17.90;99.90;;;;;;5031638;28;20289;-71
2023/05/09 07:01:07;;;;;;;0.98;0.98;;;17.70;99.90;;;;;;5039690;28;20219;-71
2023/05/09 07:03:35;;;;;;;2.35;2.15;;;17.90;99.90;;;;;;5031866;28;20639;-71
2023/05/09 07:06:05;;;;;;;2.03;1.85;;;18.00;99.90;;;;;;5042781;28;20207;-70
2023/05/09 07:08:32;;;;;;;2.33;2.13;;;18.00;99.90;;;;;;5050384;28;20285;-71
2023/05/09 07:11:00;;;;;;;2.88;2.30;;;18.10;99.90;;;;;;5066013;28;20653;-71
2023/05/09 07:13:28;;;;;;;1.35;1.20;;;18.10;99.90;;;;;;5038529;28;20303;-71
2023/05/09 07:15:56;;;;;;;1.90;1.80;;;18.30;99.90;;;;;;5039823;28;20207;-71
2023/05/09 07:18:24;;;;;;;2.55;2.35;;;18.30;99.90;;;;;;5031223;28;20235;-71
2023/05/09 07:20:52;;;;;;;2.30;1.75;;;18.50;99.90;;;;;;5039195;28;20793;-71
2023/05/09 07:23:21;;;;;;;1.40;1.30;;;18.50;99.90;;;;;;5039430;28;20291;-71
2023/05/09 07:25:49;;;;;;;2.53;2.30;;;18.60;99.90;;;;;;5034828;28;20212;-71
2023/05/09 07:28:17;;;;;;;2.28;2.08;;;18.70;99.90;;;;;;5042298;28;20224;-70
2023/05/09 07:30:45;;;;;;;1.52;1.42;;;18.60;99.90;;;;;;5042547;28;20232;-71
2023/05/09 07:33:13;;;;;;;2.50;2.30;;;18.40;99.90;;;;;;5042451;28;20265;-71
2023/05/09 07:35:41;;;;;;;2.08;1.50;;;18.30;99.90;;;;;;5050821;28;20207;-70
2023/05/09 07:38:09;;;;;;;2.13;1.75;;;18.40;99.90;;;;;;5039794;28;20238;-71
2023/05/09 07:40:39;;;;;;;1.67;1.27;;;18.40;99.90;;;;;;5061094;28;20300;-70
2023/05/09 07:43:07;;;;;;;1.20;0.98;;;18.30;99.90;;;;;;5040772;28;20209;-71
2023/05/09 07:45:35;;;;;;;2.90;2.65;;;18.20;99.90;;;;;;5030942;28;20227;-71
2023/05/09 07:48:03;;;;;;;3.92;2.35;;;18.10;99.90;;;;;;5031605;28;20211;-71
2023/05/09 07:50:31;;;;;;;2.58;2.38;;;18.10;99.90;;;;;;5037281;28;20224;-71
2023/05/09 07:52:59;;;;;;;1.73;1.63;;;18.00;99.90;;;;;;5030379;28;20235;-70
2023/05/09 07:55:27;;;;;;;1.70;1.60;;;18.00;99.90;;;;;;5038788;28;20240;-71
2023/05/09 07:57:56;;;;;;;2.30;2.20;;;17.80;99.90;;;;;;5039389;28;20215;-71
2023/05/09 08:00:25;;;;;;;1.92;1.83;;;17.70;99.90;;;;;;5040337;28;20306;-71
2023/05/09 08:02:53;;;;;;;2.40;1.90;;;17.80;99.90;;;;;;5041036;28;20687;-71
2023/05/09 08:05:21;;;;;;;2.17;1.95;;;17.80;99.90;;;;;;5042928;28;20207;-71
2023/05/09 08:07:49;;;;;;;1.90;1.77;;;17.90;99.90;;;;;;5046068;28;20299;-71
2023/05/09 08:10:17;;;;;;;1.10;1.10;;;18.00;99.90;;;;;;5062411;28;20226;-71
2023/05/09 08:12:45;;;;;;;1.88;1.65;;;18.10;99.90;;;;;;5039588;28;20304;-70
2023/05/09 08:15:14;;;;;;;3.03;2.78;;;18.10;99.90;;;;;;5042273;28;20224;-71
2023/05/09 08:17:43;;;;;;;2.35;1.00;;;18.00;99.90;;;;;;5042563;28;20200;-71
2023/05/09 08:20:12;;;;;;;2.58;1.90;;;18.00;99.90;;;;;;5042384;28;20227;-70
2023/05/09 08:22:40;;;;;;;2.65;2.03;;;17.80;99.90;;;;;;5040328;28;20208;-70
2023/05/09 08:25:09;;;;;;;2.03;1.88;;;17.80;99.90;;;;;;5050869;28;20628;-71
2023/05/09 08:27:37;;;;;;;1.63;1.27;;;17.80;99.90;;;;;;5042757;28;20208;-71
2023/05/09 08:30:06;;;;;;;3.47;2.58;;;17.90;99.90;;;;;;5033679;28;20215;-71
2023/05/09 08:32:35;;;;;;;2.28;1.95;;;18.00;99.90;;;;;;5034318;28;20635;-70
2023/05/09 08:35:04;;;;;;;1.77;1.67;;;18.10;99.90;;;;;;5042898;28;20698;-71
2023/05/09 08:37:32;;;;;;;1.13;1.02;;;18.00;99.90;;;;;;5054141;28;20207;-70
2023/05/09 08:40:00;;;;;;;1.65;1.55;;;18.00;99.90;;;;;;5061428;28;20334;-70
2023/05/09 08:42:30;;;;;;;2.60;1.92;;;18.00;99.90;;;;;;5057447;28;20243;-71
2023/05/09 08:45:00;;;;;;;2.38;1.77;;;18.00;99.90;;;;;;5034394;28;20208;-71
2023/05/09 08:47:29;;;;;;;2.10;1.90;;;17.90;99.90;;;;;;5042371;28;20232;-70
2023/05/09 08:49:58;;;;;;;1.88;1.77;;;17.90;99.90;;;;;;5033676;28;20224;-71
2023/05/09 08:52:26;;;;;;;2.42;2.22;;;17.90;99.90;;;;;;5038105;28;20286;-70
2023/05/09 08:54:54;;;;;;;2.33;2.05;;;17.90;99.90;;;;;;5051598;28;20290;-71
2023/05/09 08:57:22;;;;;;;2.95;2.65;;;17.80;99.90;;;;;;5042296;28;20295;-70
2023/05/09 08:59:51;;;;;;;4.13;3.72;;;17.90;99.90;;;;;;5033576;28;20254;-70
2023/05/09 09:02:20;;;;;;;1.83;1.73;;;17.80;99.90;;;;;;5033575;28;20259;-71
2023/05/09 09:04:48;;;;;;;1.25;1.15;;;17.80;99.90;;;;;;5033749;28;20208;-70
2023/05/09 09:07:18;;;;;;;1.45;1.25;;;17.80;99.90;;;;;;5041725;28;20211;-70
2023/05/09 09:09:47;;;;;;;2.60;1.95;;;17.80;99.90;;;;;;5066899;28;20318;-70
2023/05/09 09:12:17;;;;;;;1.85;1.75;;;17.70;99.90;;;;;;5062736;28;20235;-70
2023/05/09 09:14:48;;;;;;;1.80;1.70;;;17.70;99.90;;;;;;5040502;28;20595;-71
2023/05/09 09:17:19;;;;;;;1.55;1.45;;;17.80;99.90;;;;;;5041015;28;20279;-70
2023/05/09 09:19:50;;;;;;;3.47;3.17;;;17.70;99.90;;;;;;5036170;28;20225;-71
2023/05/09 09:22:20;;;;;;;2.60;2.40;;;17.80;99.90;;;;;;5033131;28;20204;-70
2023/05/09 09:24:48;;;;;;;2.08;1.85;;;17.80;99.90;;;;;;5039914;28;20287;-71
2023/05/09 09:27:16;;;;;;;2.08;1.98;;;17.80;99.90;;;;;;5051081;28;20674;-70
2023/05/09 09:29:43;;;;;;;2.20;2.00;;;17.90;99.90;;;;;;5038886;28;20706;-71
2023/05/09 09:32:11;;;;;;;2.65;1.80;;;18.00;99.90;;;;;;5039725;28;20232;-70
2023/05/09 09:34:39;;;;;;;2.55;2.30;;;18.10;99.90;;;;;;5038226;28;20298;-69
2023/05/09 09:37:08;;;;;;;2.08;1.88;;;18.20;99.90;;;;;;5036669;28;20649;-70
2023/05/09 09:39:37;;;;;;;2.88;2.67;;;18.20;99.90;;;;;;5042888;28;20791;-70
2023/05/09 09:42:11;;;;;;;1.90;1.80;;;18.10;99.90;;;;;;5035728;28;20732;-70
2023/05/09 09:44:39;;;;;;;1.63;1.45;;;18.10;99.90;;;;;;5032794;28;20257;-70
2023/05/09 09:47:09;;;;;;;3.38;1.80;;;18.10;99.90;;;;;;5032689;28;20236;-70
2023/05/09 09:49:38;;;;;;;3.17;2.97;;;18.20;99.90;;;;;;5032682;28;20725;-71
2023/05/09 09:52:05;;;;;;;2.50;2.30;;;18.20;99.90;;;;;;5034824;28;20216;-70
2023/05/09 09:54:33;;;;;;;1.65;1.55;;;18.30;99.90;;;;;;5035144;28;20243;-71
2023/05/09 09:57:03;;;;;;;3.10;2.53;;;18.30;99.90;;;;;;5032784;28;20240;-71
2023/05/09 09:59:31;;;;;;;2.38;1.83;;;18.50;99.90;;;;;;5040172;28;20283;-71
2023/05/09 10:02:00;;;;;;;2.85;2.50;;;18.70;99.90;;;;;;5032494;28;20214;-70
2023/05/09 10:04:35;;;;;;;2.28;1.95;;;18.80;99.90;;;;;;5032574;28;20200;-71
2023/05/09 10:07:05;;;;;;;3.40;2.47;;;19.00;99.90;;;;;;5032601;28;20204;-71
2023/05/09 10:09:34;;;;;;;2.67;2.17;;;19.10;99.90;;;;;;5061904;28;20203;-68
2023/05/09 10:12:06;;;;;;;2.53;1.85;;;19.10;99.90;;;;;;5063698;28;20239;-70
2023/05/09 10:14:35;;;;;;;1.90;1.80;;;19.20;99.90;;;;;;5039046;28;20302;-68
2023/05/09 10:17:04;;;;;;;2.35;2.15;;;19.30;99.90;;;;;;5032459;28;20755;-69
2023/05/09 10:19:33;;;;;;;1.90;1.80;;;19.30;99.90;;;;;;5040543;28;20262;-69
2023/05/09 10:22:04;;;;;;;3.45;2.80;;;19.30;99.90;;;;;;5032193;28;20208;-69
2023/05/09 10:24:39;;;;;;;1.90;1.58;;;19.40;99.90;;;;;;5032303;28;20196;-69
2023/05/09 10:27:10;;;;;;;2.55;2.05;;;19.40;99.90;;;;;;5039709;28;20294;-69
2023/05/09 10:29:44;;;;;;;1.70;1.55;;;19.30;99.90;;;;;;5042240;28;20302;-69
2023/05/09 10:32:16;;;;;;;2.42;2.17;;;19.40;99.90;;;;;;5035308;28;20295;-69
2023/05/09 10:34:49;;;;;;;2.92;2.35;;;19.50;99.90;;;;;;5043596;28;20270;-69
2023/05/09 10:37:17;;;;;;;2.38;2.08;;;19.50;99.90;;;;;;5033652;28;20291;-69
2023/05/09 10:39:51;;;;;;;1.45;1.35;;;19.60;99.90;;;;;;5055967;28;20235;-69
2023/05/09 10:42:22;;;;;;;4.50;2.10;;;19.80;99.90;;;;;;5059225;28;20686;-69
2023/05/09 10:44:52;;;;;;;2.22;1.95;;;20.00;99.90;;;;;;5040183;28;20283;-69
2023/05/09 10:47:21;;;;;;;2.08;1.98;;;20.20;99.90;;;;;;5032096;28;20295;-69
2023/05/09 10:49:49;;;;;;;2.15;1.95;;;20.30;99.90;;;;;;5037198;28;20729;-69
2023/05/09 10:52:17;;;;;;;2.30;2.13;;;20.10;99.90;;;;;;5031473;28;20232;-69
2023/05/09 10:54:58;;;;;;;2.30;2.08;;;20.20;99.90;;;;;;5036903;28;20314;-69
2023/05/09 10:57:28;;;;;;;1.73;1.30;;;20.30;99.90;;;;;;5040481;28;20287;-69
2023/05/09 10:59:57;;;;;;;2.80;2.53;;;20.50;99.90;;;;;;5038426;28;20228;-69
2023/05/09 11:02:28;;;;;;;2.25;1.92;;;20.60;99.90;;;;;;5041541;28;20204;-69
2023/05/09 11:05:14;;;;;;;4.55;1.50;;;20.50;99.90;;;;;;5044528;28;20200;-70
2023/05/09 11:07:43;;;;;;;2.15;2.00;;;20.60;99.90;;;;;;5044598;28;20221;-69
2023/05/09 11:10:15;;;;;;;1.55;1.20;;;20.40;99.90;;;;;;5059395;28;20227;-70
2023/05/09 11:12:58;;;;;;;2.58;2.08;;;20.40;99.90;;;;;;5052892;28;20214;-70
2023/05/09 11:15:27;;;;;;;2.75;2.55;;;20.40;99.90;;;;;;5047447;28;20228;-69
2023/05/09 11:18:06;;;;;;;1.58;1.48;;;20.30;99.90;;;;;;5039562;28;20660;-69
2023/05/09 11:20:35;;;;;;;2.05;1.77;;;20.30;99.90;;;;;;5039216;28;20311;-70
2023/05/09 11:23:05;;;;;;;2.22;1.83;;;20.30;99.90;;;;;;5037448;28;20207;-69
2023/05/09 11:25:33;;;;;;;2.03;1.92;;;20.30;99.90;;;;;;5047604;28;20196;-70
2023/05/09 11:28:02;;;;;;;3.25;1.90;;;20.20;99.90;;;;;;5031007;28;20207;-69
2023/05/09 11:30:40;;;;;;;2.22;1.95;;;20.10;99.90;;;;;;5030506;28;20252;-69
2023/05/09 11:33:22;;;;;;;3.97;3.17;;;19.90;99.90;;;;;;5039266;28;20236;-70
2023/05/09 11:36:18;;;;;;;3.88;2.78;;;19.70;99.90;;;;;;5039927;28;20220;-69
2023/05/09 11:38:47;;;;;;;2.40;2.22;;;19.70;99.90;;;;;;5041657;28;20208;-69
2023/05/09 11:41:15;;;;;;;2.03;1.83;;;19.70;99.90;;;;;;5066512;28;20243;-69
2023/05/09 11:43:45;;;;;;;1.75;1.60;;;19.70;99.90;;;;;;5046146;28;20601;-70
2023/05/09 11:46:13;;;;;;;2.00;1.80;;;19.70;99.90;;;;;;5030765;28;20232;-70
2023/05/09 11:48:41;;;;;;;3.55;2.45;;;19.80;99.90;;;;;;5030566;28;20209;-70
2023/05/09 11:51:17;;;;;;;2.03;1.83;;;19.80;99.90;;;;;;5032462;28;20316;-70
2023/05/09 11:53:46;;;;;;;2.30;2.10;;;19.90;99.90;;;;;;5037718;28;20299;-70
2023/05/09 11:56:14;;;;;;;1.60;1.50;;;19.90;99.90;;;;;;5031278;28;20762;-71
2023/05/09 11:58:42;;;;;;;4.30;2.60;;;20.10;99.90;;;;;;5037920;28;20300;-71
2023/05/09 12:01:12;;;;;;;3.05;2.70;;;20.30;99.90;;;;;;5030492;28;20318;-71
2023/05/09 12:03:43;;;;;;;2.20;1.83;;;20.40;99.90;;;;;;5039003;28;20209;-70
2023/05/09 12:06:15;;;;;;;2.33;2.13;;;20.60;99.90;;;;;;5038344;28;20194;-70
2023/05/09 12:08:44;;;;;;;2.58;2.17;;;20.90;99.90;;;;;;5048977;28;20199;-70
2023/05/09 12:11:12;;;;;;;1.85;1.75;;;21.00;99.90;;;;;;5060921;28;20273;-70
2023/05/09 12:13:47;;;;;;;2.08;1.85;;;20.90;99.90;;;;;;5030636;28;20212;-70
2023/05/09 12:16:17;;;;;;;2.85;2.35;;;21.10;99.90;;;;;;5030431;28;20259;-70
2023/05/09 12:18:46;;;;;;;2.08;1.58;;;21.20;99.90;;;;;;5039041;28;20244;-70
2023/05/09 12:21:14;;;;;;;2.33;1.55;;;21.40;99.90;;;;;;5037965;28;20229;-70
2023/05/09 12:23:42;;;;;;;2.03;1.92;;;21.80;99.90;;;;;;5030688;28;20259;-70
2023/05/09 12:26:11;;;;;;;1.50;1.40;;;22.20;99.90;;;;;;5038323;28;20267;-70
2023/05/09 12:28:39;;;;;;;1.92;1.83;;;22.50;99.90;;;;;;5042636;28;20244;-70
2023/05/09 12:31:07;;;;;;;3.55;1.70;;;22.80;99.90;;;;;;5041483;28;20299;-70
2023/05/09 12:33:38;;;;;;;2.00;1.85;;;23.00;99.90;;;;;;5041881;28;20205;-70
2023/05/09 12:36:09;;;;;;;1.95;1.85;;;23.00;99.90;;;;;;5050397;28;20274;-71
2023/05/09 12:38:38;;;;;;;1.83;1.70;;;22.50;99.90;;;;;;5043641;28;20212;-70
2023/05/09 12:41:07;;;;;;;2.28;2.10;;;22.50;99.90;;;;;;5075653;22;20245;-66
2023/05/09 12:43:50;;;;;;;1.90;1.65;;;22.50;99.90;;;;;;5030029;28;20212;-66
2023/05/09 12:46:18;;;;;;;2.30;2.15;;;22.60;99.90;;;;;;5032031;28;20280;-66
2023/05/09 12:48:48;;;;;;;1.98;1.42;;;22.60;99.90;;;;;;5031244;28;20240;-66
2023/05/09 12:51:19;;;;;;;1.95;1.75;;;22.60;99.90;;;;;;5020611;28;20234;-67
2023/05/09 12:53:48;;;;;;;2.92;2.10;;;22.50;99.90;;;;;;5014232;28;20221;-66
2023/05/09 12:56:17;;;;;;;3.25;2.72;;;22.30;99.90;;;;;;5013924;28;20229;-66
2023/05/09 12:58:50;;;;;;;2.53;1.92;;;22.00;99.90;;;;;;5013888;28;20217;-66